createdAt,value
2018-07-06T00:01:48.814Z,3.43
2018-07-06T00:06:08.994Z,3.37
2018-07-06T00:10:29.175Z,3.60
2018-07-06T00:14:50.237Z,2.43
2018-07-06T00:19:10.564Z,4.40
2018-07-06T00:23:30.768Z,3.63
2018-07-06T00:27:50.931Z,3.07
2018-07-06T00:32:11.208Z,2.50
2018-07-06T00:36:31.461Z,2.40
2018-07-06T00:40:51.679Z,4.73
2018-07-06T00:45:11.899Z,6.47
2018-07-06T00:49:31.967Z,5.40
2018-07-06T00:53:52.101Z,3.77
2018-07-06T00:58:12.303Z,2.83
2018-07-06T01:02:32.365Z,3.57
2018-07-06T01:06:52.564Z,3.07
2018-07-06T01:11:12.670Z,3.50
2018-07-06T01:15:35.708Z,2.80
2018-07-06T01:19:57.252Z,3.97
2018-07-06T01:24:17.269Z,2.30
2018-07-06T01:28:37.335Z,4.23
2018-07-06T01:32:57.443Z,2.70
2018-07-06T01:37:17.583Z,6.40
2018-07-06T01:41:37.738Z,3.03
2018-07-06T01:45:57.706Z,3.70
2018-07-06T01:50:18.013Z,4.23
2018-07-06T01:54:38.340Z,3.33
2018-07-06T01:58:58.479Z,3.07
2018-07-06T02:03:18.624Z,3.77
2018-07-06T02:07:38.832Z,5.30
2018-07-06T02:11:59.061Z,4.40
2018-07-06T02:16:19.216Z,4.70
2018-07-06T02:20:39.383Z,6.00
2018-07-06T02:24:59.417Z,4.23
2018-07-06T02:29:19.548Z,4.83
2018-07-06T02:33:39.807Z,5.63
2018-07-06T02:38:00.015Z,5.67
2018-07-06T02:42:20.302Z,5.60
2018-07-06T02:46:34.769Z,8.43
2018-07-06T02:50:54.966Z,4.20
2018-07-06T02:55:15.083Z,6.03
2018-07-06T02:59:35.181Z,5.90
2018-07-06T03:03:55.640Z,7.67
2018-07-06T03:08:15.835Z,5.90
2018-07-06T03:12:35.884Z,4.97
2018-07-06T03:16:56.147Z,8.93
2018-07-06T03:21:16.294Z,7.13
2018-07-06T03:25:36.725Z,7.20
2018-07-06T03:29:56.848Z,6.53
2018-07-06T03:34:11.278Z,6.53
2018-07-06T03:38:31.365Z,9.30
2018-07-06T03:42:51.650Z,8.07
2018-07-06T03:47:11.886Z,8.37
2018-07-06T03:51:32.336Z,10.40
2018-07-06T03:55:46.566Z,7.93
2018-07-06T04:00:06.771Z,10.43
2018-07-06T04:04:27.051Z,8.30
2018-07-06T04:08:47.070Z,8.50
2018-07-06T04:13:07.247Z,7.17
2018-07-06T04:17:27.466Z,11.83
2018-07-06T04:21:47.572Z,6.27
2018-07-06T04:26:07.935Z,7.03
2018-07-06T04:30:28.003Z,13.17
2018-07-06T04:34:48.179Z,8.63
2018-07-06T04:39:08.278Z,11.57
2018-07-06T04:43:28.544Z,11.60
2018-07-06T04:47:48.798Z,7.77
2018-07-06T04:52:08.938Z,14.47
2018-07-06T04:56:29.128Z,11.63
2018-07-06T05:00:49.359Z,17.40
2018-07-06T05:05:09.501Z,15.37
2018-07-06T05:09:29.621Z,15.17
2018-07-06T05:13:49.668Z,16.03
2018-07-06T05:18:09.814Z,22.10
2018-07-06T05:22:24.213Z,17.10
2018-07-06T05:26:44.461Z,11.70
2018-07-06T05:31:04.713Z,8.27
2018-07-06T05:35:24.749Z,20.77
2018-07-06T05:39:45.075Z,20.03
2018-07-06T05:44:05.396Z,13.13
2018-07-06T05:48:25.525Z,13.70
2018-07-06T05:52:45.702Z,19.93
2018-07-06T05:57:06.006Z,17.30
2018-07-06T06:01:26.042Z,23.90
2018-07-06T06:05:46.264Z,13.90
2018-07-06T06:09:55.083Z,18.97
2018-07-06T06:13:58.090Z,19.17
2018-07-06T06:18:00.858Z,14.73
2018-07-06T06:22:03.716Z,16.30
2018-07-06T06:26:06.580Z,16.60
2018-07-06T06:30:09.548Z,11.93
2018-07-06T06:34:12.528Z,17.67
2018-07-06T06:38:15.405Z,15.50
2018-07-06T06:42:18.549Z,15.27
2018-07-06T06:46:21.433Z,16.47
2018-07-06T06:50:24.442Z,19.17
2018-07-06T06:54:27.386Z,16.37
2018-07-06T06:58:30.346Z,18.37
2018-07-06T07:02:33.302Z,18.00
2018-07-06T07:06:36.259Z,13.67
2018-07-06T07:10:39.131Z,16.23
2018-07-06T07:14:42.030Z,17.00
2018-07-06T07:18:44.897Z,17.90
2018-07-06T07:22:47.877Z,17.90
2018-07-06T07:26:50.789Z,22.70
2018-07-06T07:30:53.665Z,18.67
2018-07-06T07:34:56.534Z,15.87
2018-07-06T07:38:59.610Z,15.10
2018-07-06T07:43:02.505Z,17.47
2018-07-06T07:47:05.641Z,13.57
2018-07-06T07:51:51.973Z,18.63
2018-07-06T07:55:54.874Z,15.80
2018-07-06T07:59:57.741Z,17.20
2018-07-06T08:04:00.647Z,14.77
2018-07-06T08:08:03.582Z,11.07
2018-07-06T08:12:07.270Z,14.40
2018-07-06T08:16:10.260Z,16.63
2018-07-06T08:20:13.291Z,14.80
2018-07-06T08:24:16.762Z,15.60
2018-07-06T08:28:19.570Z,16.47
2018-07-06T08:32:22.500Z,13.30
2018-07-06T08:36:39.324Z,14.03
2018-07-06T08:40:42.167Z,13.40
2018-07-06T08:44:45.108Z,13.63
2018-07-06T08:48:48.105Z,12.00
2018-07-06T08:52:51.929Z,11.30
2018-07-06T08:56:54.815Z,15.60
2018-07-06T09:00:57.769Z,13.77
2018-07-06T09:05:01.389Z,9.53
2018-07-06T09:09:04.487Z,12.83
2018-07-06T09:13:07.678Z,8.33
2018-07-06T09:17:13.154Z,12.97
2018-07-06T09:21:15.938Z,15.10
2018-07-06T09:25:19.146Z,11.07
2018-07-06T09:29:22.218Z,9.93
2018-07-06T09:33:25.163Z,10.03
2018-07-06T09:37:28.020Z,10.47
2018-07-06T09:41:32.787Z,10.63
2018-07-06T09:45:35.618Z,10.83
2018-07-06T09:49:38.807Z,8.50
2018-07-06T09:53:42.003Z,9.87
2018-07-06T09:57:44.885Z,11.03
2018-07-06T10:01:47.774Z,10.20
2018-07-06T10:05:50.647Z,5.80
2018-07-06T10:09:53.656Z,7.87
2018-07-06T10:13:56.352Z,8.27
2018-07-06T10:17:59.278Z,7.07
2018-07-06T10:22:02.088Z,6.33
2018-07-06T10:26:05.027Z,6.27
2018-07-06T10:30:14.342Z,6.60
2018-07-06T10:34:17.925Z,11.37
2018-07-06T10:38:20.746Z,7.40
2018-07-06T10:42:23.610Z,7.73
2018-07-06T10:46:26.448Z,8.13
2018-07-06T10:50:29.358Z,7.20
2018-07-06T10:54:32.192Z,7.67
2018-07-06T10:58:34.979Z,4.47
2018-07-06T11:02:37.757Z,4.57
2018-07-06T11:06:40.599Z,5.40
2018-07-06T11:10:43.359Z,4.80
2018-07-06T11:14:46.128Z,4.53
2018-07-06T11:18:48.926Z,6.97
2018-07-06T11:22:51.709Z,4.53
2018-07-06T11:26:54.488Z,5.43
2018-07-06T11:30:57.345Z,6.80
2018-07-06T11:35:00.001Z,3.90
2018-07-06T11:39:04.464Z,8.20
2018-07-06T11:43:07.153Z,4.40
2018-07-06T11:47:10.119Z,5.10
2018-07-06T11:51:12.911Z,4.57
2018-07-06T11:55:15.769Z,4.47
2018-07-06T11:59:18.596Z,6.27
2018-07-06T12:03:22.158Z,5.13
2018-07-06T12:07:25.140Z,3.63
2018-07-06T12:11:27.997Z,5.87
2018-07-06T12:15:30.828Z,6.30
2018-07-06T12:19:33.701Z,6.40
2018-07-06T12:23:36.547Z,7.47
2018-07-06T12:27:39.412Z,5.77
2018-07-06T12:31:42.304Z,5.70
2018-07-06T12:35:46.257Z,4.13
2018-07-06T12:39:49.212Z,6.13
2018-07-06T12:43:52.091Z,5.10
2018-07-06T12:47:54.903Z,5.50
2018-07-06T12:51:57.744Z,8.50
2018-07-06T12:56:00.619Z,6.20
2018-07-06T13:00:03.502Z,4.17
2018-07-06T13:04:06.396Z,4.90
2018-07-06T13:08:09.170Z,6.50
2018-07-06T13:12:11.960Z,4.87
2018-07-06T13:16:14.835Z,8.73
2018-07-06T13:20:17.673Z,5.17
2018-07-06T13:24:20.497Z,5.70
2018-07-06T13:28:23.441Z,6.17
2018-07-06T13:32:26.291Z,4.10
2018-07-06T13:36:29.133Z,6.87
2018-07-06T13:40:32.811Z,3.70
2018-07-06T13:44:35.653Z,5.00
2018-07-06T13:48:38.494Z,6.10
2018-07-06T13:52:41.285Z,5.23
2018-07-06T13:56:44.305Z,3.83
2018-07-06T14:00:47.834Z,7.20
2018-07-06T14:04:50.722Z,6.27
2018-07-06T14:08:53.578Z,6.57
2018-07-06T14:12:56.440Z,4.03
2018-07-06T14:16:59.301Z,4.17
2018-07-06T14:21:02.168Z,6.13
2018-07-06T14:25:05.027Z,8.63
2018-07-06T14:29:07.825Z,6.50
2018-07-06T14:33:10.686Z,7.07
2018-07-06T14:37:13.605Z,5.17
2018-07-06T14:41:16.453Z,6.27
2018-07-06T14:45:20.044Z,6.83
2018-07-06T14:49:22.844Z,8.07
2018-07-06T14:53:25.740Z,9.27
2018-07-06T14:57:28.587Z,6.80
2018-07-06T15:01:31.444Z,3.47
2018-07-06T15:05:35.164Z,4.53
2018-07-06T15:09:38.029Z,5.40
2018-07-06T15:13:40.872Z,6.87
2018-07-06T15:17:45.864Z,6.87
2018-07-06T15:21:48.742Z,7.00
2018-07-06T15:25:58.018Z,4.00
2018-07-06T15:30:01.016Z,5.13
2018-07-06T15:34:04.041Z,9.67
2018-07-06T15:38:06.884Z,5.47
2018-07-06T15:42:10.802Z,4.80
2018-07-06T15:46:13.588Z,4.93
2018-07-06T15:50:16.454Z,6.17
2018-07-06T15:54:21.433Z,5.00
2018-07-06T15:58:24.342Z,9.90
2018-07-06T16:02:27.221Z,8.00
2018-07-06T16:06:30.081Z,5.60
2018-07-06T16:10:32.946Z,9.10
2018-07-06T16:14:36.097Z,7.93
2018-07-06T16:18:39.065Z,4.70
2018-07-06T16:22:41.912Z,4.67
2018-07-06T16:26:51.429Z,10.33
2018-07-06T16:30:54.285Z,5.00
2018-07-06T16:34:57.077Z,3.27
2018-07-06T16:38:59.909Z,5.23
2018-07-06T16:43:02.864Z,5.67
2018-07-06T16:47:05.724Z,4.00
2018-07-06T16:51:08.534Z,5.17
2018-07-06T16:55:11.413Z,8.57
2018-07-06T16:59:14.338Z,6.07
2018-07-06T17:03:17.189Z,9.27
2018-07-06T17:07:20.132Z,3.43
2018-07-06T17:11:22.975Z,8.17
2018-07-06T17:15:25.779Z,6.37
2018-07-06T17:19:28.622Z,8.37
2018-07-06T17:23:31.465Z,5.93
2018-07-06T17:27:34.492Z,7.00
2018-07-06T17:31:37.591Z,6.07
2018-07-06T17:35:40.424Z,3.07
2018-07-06T17:39:43.349Z,9.87
2018-07-06T17:43:46.152Z,7.93
2018-07-06T17:47:49.008Z,6.33
2018-07-06T17:51:51.791Z,6.13
2018-07-06T17:55:54.544Z,3.93
2018-07-06T17:59:57.488Z,4.00
2018-07-06T18:04:00.362Z,5.13
2018-07-06T18:08:03.286Z,6.33
2018-07-06T18:12:06.120Z,14.07
2018-07-06T18:16:09.103Z,5.80
2018-07-06T18:20:11.949Z,8.93
2018-07-06T18:24:14.779Z,5.63
2018-07-06T18:28:17.642Z,6.03
2018-07-06T18:32:20.467Z,7.27
2018-07-06T18:36:23.283Z,6.77
2018-07-06T18:40:26.074Z,6.23
2018-07-06T18:44:28.932Z,3.43
2018-07-06T18:48:31.810Z,3.73
2018-07-06T18:52:34.624Z,3.33
2018-07-06T18:56:37.519Z,4.20
2018-07-06T19:00:40.395Z,9.67
2018-07-06T19:04:44.163Z,7.00
2018-07-06T19:08:46.986Z,11.10
2018-07-06T19:12:49.859Z,14.43
2018-07-06T19:16:52.734Z,7.00
2018-07-06T19:20:55.524Z,9.67
2018-07-06T19:24:58.436Z,6.77
2018-07-06T19:29:01.383Z,2.90
2018-07-06T19:33:04.278Z,16.37
2018-07-06T19:37:07.157Z,2.90
2018-07-06T19:41:10.005Z,7.80
2018-07-06T19:45:12.966Z,3.57
2018-07-06T19:49:15.890Z,3.90
2018-07-06T19:53:18.730Z,8.47
2018-07-06T19:57:21.535Z,6.23
2018-07-06T20:01:24.398Z,11.53
2018-07-06T20:05:27.222Z,5.63
2018-07-06T20:09:30.101Z,3.57
2018-07-06T20:15:23.377Z,6.90
2018-07-06T20:19:26.313Z,9.50
2018-07-06T20:23:29.289Z,9.33
2018-07-06T20:27:32.221Z,5.00
2018-07-06T20:31:35.083Z,12.17
2018-07-06T20:35:38.173Z,16.73
2018-07-06T20:39:41.046Z,18.50
2018-07-06T20:43:43.862Z,17.50
2018-07-06T20:47:46.838Z,25.83
2018-07-06T20:51:51.154Z,22.27
2018-07-06T20:55:54.000Z,10.47
2018-07-06T20:59:56.925Z,16.50
2018-07-06T21:03:59.817Z,5.53
2018-07-06T21:08:02.653Z,9.40
2018-07-06T21:12:05.516Z,4.40
2018-07-06T21:16:08.302Z,6.20
2018-07-06T21:20:11.167Z,13.87
2018-07-06T21:24:14.019Z,5.87
2018-07-06T21:28:17.339Z,8.50
2018-07-06T21:36:30.089Z,4.27
2018-07-06T21:40:32.889Z,5.00
2018-07-06T21:44:35.871Z,5.20
2018-07-06T21:48:38.660Z,10.87
2018-07-06T21:52:41.446Z,3.30
2018-07-06T21:56:44.277Z,4.27
2018-07-06T22:00:47.069Z,4.37
2018-07-06T22:04:49.980Z,3.57
2018-07-06T22:08:53.101Z,8.03
2018-07-06T22:12:56.030Z,4.53
2018-07-06T22:16:58.926Z,5.37
2018-07-06T22:21:01.704Z,1.57
2018-07-06T22:25:04.679Z,5.70
2018-07-06T22:29:07.525Z,4.27
2018-07-06T22:33:10.327Z,4.57
2018-07-06T22:37:13.213Z,5.10
2018-07-06T22:41:16.380Z,2.80
2018-07-06T22:45:19.447Z,4.13
2018-07-06T22:49:22.351Z,5.30
2018-07-06T22:53:25.297Z,4.07
2018-07-06T22:57:35.252Z,1.73
2018-07-06T23:01:38.145Z,4.70
2018-07-06T23:05:41.020Z,3.87
2018-07-06T23:09:43.906Z,3.83
2018-07-06T23:13:46.670Z,4.07
2018-07-06T23:17:49.619Z,1.83
2018-07-06T23:21:52.819Z,3.67
2018-07-06T23:25:55.710Z,3.07
2018-07-06T23:29:58.595Z,3.80
2018-07-06T23:34:01.585Z,5.50
2018-07-06T23:38:11.253Z,5.03
2018-07-06T23:42:14.145Z,6.07
2018-07-06T23:46:16.938Z,6.43
2018-07-06T23:50:20.527Z,3.23
2018-07-06T23:54:23.423Z,4.00
2018-07-06T23:58:26.187Z,6.23
